Time;durP1;ratioP1;P1;durP2;ratioP2;P2;SDS_P1;SDS_P2;PMS_P1;PMS_P2;Temp;Humidity;BMP_temperature;BMP_pressure;BME280_temperature;BME280_humidity;BME280_pressure;Samples;Min_cycle;Max_cycle;Signal;HPM_P1;HPM_P2
2023/06/20 00:01:51;;;;;;;2.03;1.47;;;11.00;47.90;;;;;;4980198;28;20232;-72
2023/06/20 00:04:19;;;;;;;1.97;1.40;;;11.10;47.80;;;;;;4985456;28;20202;-70
2023/06/20 00:06:46;;;;;;;4.27;1.20;;;11.30;48.10;;;;;;4985515;28;20188;-71
2023/06/20 00:09:13;;;;;;;2.30;1.17;;;11.50;48.00;;;;;;4987802;28;20643;-71
2023/06/20 00:11:41;;;;;;;3.33;1.40;;;11.50;47.20;;;;;;4985871;28;20189;-69
2023/06/20 00:14:12;;;;;;;1.80;1.40;;;11.50;47.40;;;;;;4992265;28;20228;-71
2023/06/20 00:16:39;;;;;;;1.77;1.37;;;11.50;46.70;;;;;;4989804;28;20203;-73
2023/06/20 00:19:06;;;;;;;4.27;1.30;;;11.50;46.50;;;;;;4987265;28;20287;-69
2023/06/20 00:21:34;;;;;;;4.53;1.50;;;11.50;46.60;;;;;;4980406;28;20204;-71
2023/06/20 00:24:01;;;;;;;2.77;1.37;;;11.60;47.20;;;;;;4986730;28;20186;-69
2023/06/20 00:26:29;;;;;;;3.00;1.30;;;11.70;47.00;;;;;;4982332;28;20185;-69
2023/06/20 00:28:56;;;;;;;1.33;1.20;;;11.70;45.90;;;;;;4990451;28;20197;-69
2023/06/20 00:31:23;;;;;;;6.63;2.07;;;11.70;46.20;;;;;;4980279;28;20194;-73
2023/06/20 00:33:51;;;;;;;4.97;1.73;;;11.80;45.80;;;;;;4988838;28;20308;-72
2023/06/20 00:36:25;;;;;;;2.63;1.53;;;11.90;46.20;;;;;;4988505;28;20699;-72
2023/06/20 00:38:58;;;;;;;3.13;1.20;;;12.00;45.50;;;;;;4987365;28;20186;-73
2023/06/20 00:41:25;;;;;;;1.37;1.20;;;12.00;45.10;;;;;;4984890;28;20181;-72
2023/06/20 00:43:52;;;;;;;2.10;1.33;;;12.00;45.00;;;;;;4989936;28;20182;-71
2023/06/20 00:46:25;;;;;;;1.67;1.30;;;12.20;45.20;;;;;;4990631;28;20185;-73
2023/06/20 00:48:53;;;;;;;1.50;1.20;;;12.30;44.70;;;;;;4989606;28;20189;-70
2023/06/20 00:51:22;;;;;;;3.80;1.53;;;12.50;45.10;;;;;;4990999;28;20200;-71
2023/06/20 00:53:50;;;;;;;3.27;1.43;;;12.70;44.40;;;;;;4983325;28;20217;-72
2023/06/20 00:56:18;;;;;;;2.67;1.53;;;12.80;44.40;;;;;;4991971;28;20214;-73
2023/06/20 00:58:46;;;;;;;2.70;1.33;;;12.80;43.60;;;;;;4991534;28;20186;-72
2023/06/20 01:01:16;;;;;;;4.17;1.37;;;12.80;43.30;;;;;;4994270;28;20178;-71
2023/06/20 01:03:47;;;;;;;2.07;1.47;;;12.80;43.20;;;;;;4986486;28;20216;-70
2023/06/20 01:06:20;;;;;;;3.17;1.50;;;13.00;43.00;;;;;;4989007;28;20210;-70
2023/06/20 01:09:06;;;;;;;2.17;1.17;;;13.10;43.00;;;;;;4983775;28;20202;-70
2023/06/20 01:11:49;;;;;;;3.90;1.53;;;13.20;42.30;;;;;;4989279;28;20254;-70
2023/06/20 01:14:45;;;;;;;2.13;1.07;;;13.30;42.30;;;;;;4988197;28;20626;-70
2023/06/20 01:17:26;;;;;;;1.77;1.00;;;13.50;42.10;;;;;;4985583;28;20177;-70
2023/06/20 01:20:09;;;;;;;2.67;1.17;;;13.70;41.00;;;;;;4984774;28;20222;-70
2023/06/20 01:23:11;;;;;;;2.30;1.00;;;13.80;41.20;;;;;;4989456;28;20618;-70
2023/06/20 01:25:54;;;;;;;2.17;1.20;;;13.80;40.40;;;;;;4958491;28;20201;-70
2023/06/20 01:28:39;;;;;;;2.47;1.17;;;13.90;40.70;;;;;;4985786;28;20234;-70
2023/06/20 01:31:07;;;;;;;1.43;1.00;;;14.00;40.70;;;;;;4990381;28;20190;-70
2023/06/20 01:33:43;;;;;;;3.50;0.80;;;14.10;39.70;;;;;;4983284;28;20526;-70
2023/06/20 01:36:12;;;;;;;1.00;1.00;;;14.00;39.70;;;;;;4987899;28;20183;-71
2023/06/20 01:38:40;;;;;;;3.23;0.97;;;14.20;39.70;;;;;;4987261;28;20258;-71
2023/06/20 01:41:08;;;;;;;4.50;1.10;;;14.50;39.80;;;;;;4988478;28;20186;-71
2023/06/20 01:43:37;;;;;;;4.17;1.07;;;14.80;39.10;;;;;;4972305;28;20198;-71
2023/06/20 01:46:08;;;;;;;1.13;0.93;;;14.90;38.60;;;;;;4993172;28;20186;-68
2023/06/20 01:48:37;;;;;;;2.03;1.33;;;14.80;38.50;;;;;;4991331;28;20590;-72
2023/06/20 01:51:04;;;;;;;1.13;0.80;;;14.80;38.90;;;;;;4991698;28;20213;-70
2023/06/20 01:53:33;;;;;;;0.97;0.90;;;15.20;38.40;;;;;;4986076;28;20296;-71
2023/06/20 01:56:02;;;;;;;1.43;1.00;;;15.20;37.60;;;;;;4992678;28;20212;-70
2023/06/20 01:58:31;;;;;;;2.57;0.80;;;14.70;37.70;;;;;;4992026;28;20187;-70
2023/06/20 02:01:00;;;;;;;2.33;0.90;;;14.90;38.30;;;;;;4986828;28;20210;-71
2023/06/20 02:03:32;;;;;;;3.23;1.10;;;14.90;37.90;;;;;;4986683;28;20516;-70
2023/06/20 02:06:01;;;;;;;3.53;0.87;;;15.30;38.20;;;;;;4990556;28;20178;-70
2023/06/20 02:08:30;;;;;;;3.17;1.80;;;15.30;37.30;;;;;;4991183;28;20203;-70
2023/06/20 02:10:58;;;;;;;1.30;1.00;;;15.40;36.70;;;;;;4989441;28;20190;-70
2023/06/20 02:13:27;;;;;;;1.93;0.90;;;15.40;37.00;;;;;;4991412;28;20199;-70
2023/06/20 02:15:55;;;;;;;1.17;0.70;;;15.40;36.60;;;;;;4992291;28;20252;-70
2023/06/20 02:18:23;;;;;;;1.83;0.90;;;15.60;36.00;;;;;;4985655;28;20222;-70
2023/06/20 02:20:54;;;;;;;1.13;0.80;;;15.50;36.00;;;;;;4986155;28;20539;-69
2023/06/20 02:23:27;;;;;;;6.03;0.90;;;15.30;36.00;;;;;;4984775;28;20190;-72
2023/06/20 02:25:59;;;;;;;3.07;0.83;;;15.30;36.40;;;;;;4987803;28;20757;-70
2023/06/20 02:28:28;;;;;;;1.03;0.90;;;15.80;35.90;;;;;;4989874;28;20220;-69
2023/06/20 02:30:57;;;;;;;1.70;0.70;;;15.80;34.60;;;;;;4988329;28;20189;-71
2023/06/20 02:33:26;;;;;;;1.73;0.80;;;15.80;34.60;;;;;;4980911;28;20807;-71
2023/06/20 02:35:54;;;;;;;2.83;0.80;;;15.90;35.40;;;;;;4986244;28;20220;-71
2023/06/20 02:38:21;;;;;;;1.40;0.80;;;16.00;34.90;;;;;;4986975;28;20652;-72
2023/06/20 02:40:50;;;;;;;2.17;0.83;;;16.10;33.20;;;;;;4988196;28;20212;-71
2023/06/20 02:43:18;;;;;;;2.03;0.83;;;15.90;32.50;;;;;;4987629;28;21361;-74
2023/06/20 02:45:49;;;;;;;18.50;1.27;;;15.80;33.10;;;;;;4986678;28;20272;-72
2023/06/20 02:48:38;;;;;;;2.00;0.70;;;15.80;33.90;;;;;;4991029;28;20212;-73
2023/06/20 02:51:16;;;;;;;1.83;0.90;;;15.80;34.40;;;;;;4985474;28;20191;-74
2023/06/20 02:53:49;;;;;;;1.60;0.93;;;15.90;34.70;;;;;;4988456;28;20213;-74
2023/06/20 02:56:17;;;;;;;1.97;0.90;;;15.90;35.20;;;;;;4987662;28;20190;-73
2023/06/20 02:58:47;;;;;;;2.40;1.27;;;15.80;35.50;;;;;;4987401;28;20181;-71
2023/06/20 03:01:27;;;;;;;2.10;0.90;;;15.80;35.60;;;;;;4989450;28;20592;-73
2023/06/20 03:03:57;;;;;;;1.57;0.83;;;15.80;36.00;;;;;;4985410;28;20201;-74
2023/06/20 03:06:27;;;;;;;3.40;1.00;;;15.90;36.30;;;;;;4988761;28;20537;-72
2023/06/20 03:09:00;;;;;;;4.33;0.90;;;15.80;35.40;;;;;;4988649;28;20194;-70
2023/06/20 03:11:27;;;;;;;2.43;1.03;;;15.90;35.70;;;;;;4989512;28;20656;-72
2023/06/20 03:13:54;;;;;;;2.43;1.00;;;15.90;34.90;;;;;;4988316;28;20634;-71
2023/06/20 03:16:26;;;;;;;2.83;0.80;;;16.10;35.60;;;;;;4989492;28;20188;-71
2023/06/20 03:18:54;;;;;;;1.30;1.03;;;15.90;35.00;;;;;;4986548;28;20223;-69
2023/06/20 03:21:21;;;;;;;1.17;0.87;;;16.00;35.00;;;;;;4990742;28;20185;-70
2023/06/20 03:23:49;;;;;;;1.53;0.90;;;16.00;34.70;;;;;;4985514;28;20211;-70
2023/06/20 03:26:16;;;;;;;5.20;0.90;;;16.00;34.60;;;;;;4986587;28;20278;-71
2023/06/20 03:28:43;;;;;;;2.17;0.87;;;16.00;33.60;;;;;;4987580;28;20196;-73
2023/06/20 03:31:11;;;;;;;2.87;0.90;;;16.10;33.70;;;;;;4988906;28;20529;-72
2023/06/20 03:33:38;;;;;;;1.93;0.80;;;16.30;33.90;;;;;;4986783;28;20309;-71
2023/06/20 03:36:09;;;;;;;3.50;1.10;;;16.40;34.00;;;;;;4987521;28;20529;-71
2023/06/20 03:38:37;;;;;;;4.60;0.90;;;16.60;34.10;;;;;;4987146;28;20197;-70
2023/06/20 03:41:04;;;;;;;6.17;1.23;;;16.90;34.00;;;;;;4989025;28;20185;-71
2023/06/20 03:43:31;;;;;;;1.50;1.17;;;17.30;33.90;;;;;;4984617;28;20179;-71
2023/06/20 03:45:59;;;;;;;3.80;0.73;;;17.30;33.70;;;;;;4987353;28;20635;-72
2023/06/20 03:48:27;;;;;;;3.43;1.10;;;17.50;33.80;;;;;;4985519;28;20189;-74
2023/06/20 03:50:54;;;;;;;2.40;1.00;;;17.60;34.30;;;;;;4986786;28;20187;-73
2023/06/20 03:53:21;;;;;;;1.47;0.80;;;17.30;33.70;;;;;;4987637;28;20194;-72
2023/06/20 03:55:48;;;;;;;2.57;0.70;;;17.30;33.80;;;;;;4988080;28;20221;-75
2023/06/20 03:58:16;;;;;;;5.30;0.97;;;17.50;33.90;;;;;;4988411;28;20185;-73
2023/06/20 04:00:43;;;;;;;2.17;0.87;;;17.30;34.40;;;;;;4986987;28;20213;-74
2023/06/20 04:03:10;;;;;;;6.90;1.00;;;17.50;34.70;;;;;;4985699;28;20186;-72
2023/06/20 04:05:38;;;;;;;3.90;1.00;;;17.30;35.10;;;;;;4989558;28;20284;-73
2023/06/20 04:08:05;;;;;;;3.47;0.80;;;17.70;34.90;;;;;;4985736;28;20190;-73
2023/06/20 04:10:32;;;;;;;3.90;1.20;;;17.90;34.30;;;;;;4986927;28;20225;-74
2023/06/20 04:13:00;;;;;;;5.17;0.70;;;17.80;35.10;;;;;;4988308;28;20263;-75
2023/06/20 04:15:27;;;;;;;3.73;0.80;;;17.90;35.60;;;;;;4983491;28;20714;-74
2023/06/20 04:17:55;;;;;;;5.53;0.90;;;18.20;35.60;;;;;;4982305;28;20186;-73
2023/06/20 04:20:22;;;;;;;5.97;0.80;;;18.00;35.80;;;;;;4986795;28;20800;-73
2023/06/20 04:22:49;;;;;;;1.27;0.70;;;18.10;35.90;;;;;;4987377;28;20265;-74
2023/06/20 04:25:17;;;;;;;4.60;0.70;;;18.40;35.40;;;;;;4986798;28;20536;-74
2023/06/20 04:27:45;;;;;;;11.60;1.10;;;18.30;35.40;;;;;;4984134;28;20220;-74
2023/06/20 04:30:12;;;;;;;4.70;1.10;;;18.80;35.50;;;;;;4982925;28;20187;-73
2023/06/20 04:32:41;;;;;;;4.07;0.97;;;18.90;34.40;;;;;;4986183;28;20956;-73
2023/06/20 04:35:10;;;;;;;3.13;0.70;;;19.20;34.30;;;;;;4989437;28;20190;-74
2023/06/20 04:37:38;;;;;;;3.63;0.77;;;18.90;34.00;;;;;;4986270;28;20193;-71
2023/06/20 04:40:08;;;;;;;2.63;0.60;;;18.70;34.10;;;;;;4982812;28;20205;-71
2023/06/20 04:42:35;;;;;;;3.93;0.90;;;18.80;34.10;;;;;;4989513;28;20194;-73
2023/06/20 04:45:03;;;;;;;4.30;0.90;;;19.10;32.80;;;;;;4985067;28;20262;-71
2023/06/20 04:47:32;;;;;;;1.27;0.77;;;19.20;33.00;;;;;;4988431;28;20181;-72
2023/06/20 04:50:03;;;;;;;3.10;1.07;;;19.40;32.80;;;;;;4989116;28;20207;-71
2023/06/20 04:52:31;;;;;;;4.40;0.93;;;19.20;33.00;;;;;;4985042;28;20285;-70
2023/06/20 04:55:07;;;;;;;4.40;0.90;;;19.30;32.90;;;;;;4988400;28;20188;-71
2023/06/20 04:57:35;;;;;;;1.23;0.80;;;19.70;32.30;;;;;;4991543;28;20354;-70
2023/06/20 05:00:13;;;;;;;3.70;0.87;;;19.50;32.40;;;;;;4988684;28;20213;-71
2023/06/20 05:02:44;;;;;;;3.77;0.90;;;20.00;32.00;;;;;;4982205;28;20248;-70
2023/06/20 05:05:11;;;;;;;6.33;1.30;;;19.70;32.20;;;;;;4984059;28;20193;-71
2023/06/20 05:07:42;;;;;;;8.47;1.20;;;19.90;31.60;;;;;;4985161;28;20213;-71
2023/06/20 05:10:10;;;;;;;2.10;0.87;;;20.50;30.80;;;;;;4985651;28;20190;-72
2023/06/20 05:12:37;;;;;;;4.93;0.90;;;20.00;30.50;;;;;;4984986;28;20193;-71
2023/06/20 05:15:05;;;;;;;2.43;0.80;;;19.80;30.10;;;;;;4986467;28;20214;-72
2023/06/20 05:17:32;;;;;;;5.43;0.83;;;20.00;30.00;;;;;;4984742;28;20225;-71
2023/06/20 05:20:05;;;;;;;4.40;0.90;;;20.00;30.80;;;;;;4985055;28;20241;-75
2023/06/20 05:22:36;;;;;;;2.70;0.83;;;20.00;30.90;;;;;;4989680;28;20179;-71
2023/06/20 05:25:04;;;;;;;3.50;1.00;;;20.10;29.90;;;;;;4987557;28;20213;-74
2023/06/20 05:27:37;;;;;;;1.33;1.00;;;20.00;29.70;;;;;;4971835;28;20319;-74
2023/06/20 05:30:05;;;;;;;1.93;0.70;;;19.30;31.00;;;;;;4989458;28;20222;-71
2023/06/20 05:32:33;;;;;;;2.57;0.80;;;19.00;31.10;;;;;;4989410;28;20189;-74
2023/06/20 05:35:00;;;;;;;3.70;0.90;;;19.30;31.50;;;;;;4988163;28;20282;-70
2023/06/20 05:37:30;;;;;;;2.77;1.33;;;19.10;31.70;;;;;;4984634;28;20190;-71
2023/06/20 05:39:58;;;;;;;7.37;1.27;;;18.80;32.30;;;;;;4976214;28;20608;-72
2023/06/20 05:42:26;;;;;;;3.80;0.87;;;19.00;32.30;;;;;;4989151;28;20177;-74
2023/06/20 05:44:53;;;;;;;1.63;1.00;;;19.20;32.00;;;;;;4986396;28;20657;-71
2023/06/20 05:47:21;;;;;;;1.80;0.90;;;18.90;32.10;;;;;;4980389;28;20191;-74
2023/06/20 05:49:48;;;;;;;1.60;1.17;;;19.30;32.10;;;;;;4992041;28;20198;-70
2023/06/20 05:52:16;;;;;;;2.57;0.90;;;19.50;32.00;;;;;;4988052;28;20182;-72
2023/06/20 05:54:46;;;;;;;7.67;1.10;;;19.70;31.40;;;;;;4989816;28;20217;-72
2023/06/20 05:57:14;;;;;;;5.40;1.17;;;19.80;31.30;;;;;;4992864;28;20237;-73
2023/06/20 05:59:41;;;;;;;3.97;1.03;;;19.30;32.00;;;;;;4990513;28;20194;-71
2023/06/20 06:02:08;;;;;;;5.23;0.93;;;19.40;31.50;;;;;;4990388;28;20193;-71
2023/06/20 06:04:36;;;;;;;5.20;1.17;;;19.30;32.20;;;;;;4994035;28;20182;-70
2023/06/20 06:07:07;;;;;;;3.93;0.80;;;19.00;32.50;;;;;;4986001;28;20197;-70
2023/06/20 06:09:34;;;;;;;4.00;1.00;;;18.00;34.20;;;;;;4990071;28;20213;-71
2023/06/20 06:12:02;;;;;;;2.80;1.20;;;17.40;35.40;;;;;;4986265;28;20175;-71
2023/06/20 06:14:29;;;;;;;2.73;1.30;;;16.70;36.80;;;;;;4975465;28;20210;-71
2023/06/20 06:16:57;;;;;;;3.93;1.07;;;16.30;37.20;;;;;;4981993;28;20636;-72
2023/06/20 06:19:24;;;;;;;3.20;1.10;;;15.70;38.30;;;;;;4991773;28;20229;-70
2023/06/20 06:21:52;;;;;;;3.73;1.10;;;15.50;39.70;;;;;;4985478;28;20189;-70
2023/06/20 06:24:21;;;;;;;2.10;1.10;;;15.40;39.40;;;;;;4984647;28;20680;-72
2023/06/20 06:26:49;;;;;;;2.00;1.00;;;15.30;40.30;;;;;;4990193;28;20274;-71
2023/06/20 06:29:18;;;;;;;5.23;1.17;;;15.10;40.40;;;;;;4985635;28;20283;-70
2023/06/20 06:31:45;;;;;;;3.43;1.30;;;14.80;41.10;;;;;;4989122;28;20239;-71
2023/06/20 06:34:17;;;;;;;8.80;1.20;;;14.70;41.60;;;;;;4983739;28;20334;-71
2023/06/20 06:36:49;;;;;;;2.33;1.00;;;14.50;42.00;;;;;;4990798;28;20195;-70
2023/06/20 06:39:18;;;;;;;2.70;1.20;;;14.40;41.90;;;;;;4971908;28;20213;-70
2023/06/20 06:41:49;;;;;;;5.23;1.23;;;14.30;42.80;;;;;;4991018;28;20196;-70
2023/06/20 06:44:17;;;;;;;2.17;1.10;;;14.10;43.10;;;;;;4988696;28;20594;-70
2023/06/20 06:46:45;;;;;;;6.53;1.47;;;14.00;43.60;;;;;;4984519;28;20222;-69
2023/06/20 06:49:13;;;;;;;2.00;1.17;;;13.90;43.40;;;;;;4985454;28;20196;-69
2023/06/20 06:51:41;;;;;;;3.67;1.50;;;13.90;43.70;;;;;;4985805;28;20190;-69
2023/06/20 06:54:08;;;;;;;3.37;1.77;;;13.80;43.90;;;;;;4990249;28;20273;-71
2023/06/20 06:56:35;;;;;;;4.70;2.27;;;13.70;44.90;;;;;;4981646;28;20228;-73
2023/06/20 06:59:03;;;;;;;7.83;2.40;;;13.60;45.20;;;;;;4989693;28;20190;-70
2023/06/20 07:01:30;;;;;;;5.13;2.10;;;13.40;45.70;;;;;;4988644;28;20254;-71
2023/06/20 07:03:58;;;;;;;3.40;2.10;;;13.40;46.00;;;;;;4989036;28;20190;-71
2023/06/20 07:06:25;;;;;;;4.47;2.10;;;13.30;46.50;;;;;;4988897;28;20190;-70
2023/06/20 07:08:53;;;;;;;2.73;2.03;;;13.20;46.70;;;;;;4989617;28;20185;-70
2023/06/20 07:11:20;;;;;;;4.50;2.40;;;13.10;47.10;;;;;;4989890;28;20186;-73
2023/06/20 07:13:48;;;;;;;5.07;2.57;;;13.00;47.30;;;;;;4987681;28;20214;-71
2023/06/20 07:16:15;;;;;;;7.40;2.90;;;12.90;48.00;;;;;;4982823;28;20644;-72
2023/06/20 07:18:43;;;;;;;5.50;2.73;;;12.80;48.80;;;;;;4991521;28;20221;-74
2023/06/20 07:21:10;;;;;;;5.57;2.90;;;12.80;48.80;;;;;;4986097;28;20221;-70
2023/06/20 07:23:37;;;;;;;4.97;2.73;;;12.80;49.30;;;;;;4987762;28;20745;-71
2023/06/20 07:26:05;;;;;;;6.17;2.30;;;12.80;49.30;;;;;;4988509;28;20179;-72
2023/06/20 07:28:32;;;;;;;4.10;2.17;;;12.70;49.50;;;;;;4986568;28;20186;-71
2023/06/20 07:30:59;;;;;;;6.30;2.37;;;12.70;49.50;;;;;;4986524;28;20187;-71
2023/06/20 07:33:27;;;;;;;2.93;1.90;;;12.70;49.70;;;;;;4990411;28;20569;-73
2023/06/20 07:35:54;;;;;;;7.13;2.40;;;12.60;49.90;;;;;;4987104;28;20721;-74
2023/06/20 07:38:21;;;;;;;4.50;2.20;;;12.50;49.90;;;;;;4986316;28;20549;-72
2023/06/20 07:40:49;;;;;;;3.60;2.00;;;12.50;50.30;;;;;;4971173;28;20621;-75
2023/06/20 07:43:19;;;;;;;7.23;3.00;;;12.40;50.40;;;;;;4988151;28;20216;-73
2023/06/20 07:45:46;;;;;;;6.83;2.37;;;12.40;50.70;;;;;;4987645;28;20190;-71
2023/06/20 07:48:14;;;;;;;7.53;2.87;;;12.30;50.60;;;;;;4989460;28;20178;-71
2023/06/20 07:50:41;;;;;;;9.70;3.20;;;12.30;50.20;;;;;;4988962;28;20610;-72
2023/06/20 07:53:08;;;;;;;6.93;2.77;;;12.20;50.30;;;;;;4986826;28;20325;-70
2023/06/20 07:55:38;;;;;;;3.83;2.40;;;12.20;50.60;;;;;;4979893;28;20545;-74
2023/06/20 07:58:05;;;;;;;7.77;2.07;;;12.20;51.20;;;;;;4984532;28;20666;-71
2023/06/20 08:00:32;;;;;;;3.77;2.27;;;12.10;50.40;;;;;;4988674;28;20266;-71
2023/06/20 08:03:00;;;;;;;2.57;2.20;;;12.10;51.60;;;;;;4970250;28;20281;-71
2023/06/20 08:05:28;;;;;;;7.57;3.17;;;12.00;51.40;;;;;;4982562;28;20181;-70
2023/06/20 08:07:55;;;;;;;6.90;2.63;;;12.00;51.20;;;;;;4985538;28;20540;-73
2023/06/20 08:10:22;;;;;;;4.87;2.30;;;12.00;51.20;;;;;;4980137;28;20260;-72
2023/06/20 08:12:50;;;;;;;5.13;2.00;;;12.00;51.80;;;;;;4986956;28;20186;-72
2023/06/20 08:15:17;;;;;;;9.60;2.60;;;12.00;52.40;;;;;;4989268;28;20542;-72
2023/06/20 08:17:45;;;;;;;6.20;2.40;;;11.90;51.50;;;;;;4986749;28;20198;-74
2023/06/20 08:20:12;;;;;;;4.63;2.43;;;11.80;51.80;;;;;;4989153;28;20276;-72
2023/06/20 08:22:39;;;;;;;4.07;2.07;;;11.90;54.20;;;;;;4982882;28;20190;-72
2023/06/20 08:25:07;;;;;;;4.50;2.40;;;11.80;52.60;;;;;;4971475;28;20244;-70
2023/06/20 08:27:34;;;;;;;2.37;1.90;;;11.80;52.60;;;;;;4985939;28;20186;-71
2023/06/20 08:30:03;;;;;;;3.70;2.33;;;11.70;53.20;;;;;;4989265;28;20185;-71
2023/06/20 08:32:30;;;;;;;3.50;2.50;;;11.70;53.30;;;;;;4985937;28;20236;-71
2023/06/20 08:34:57;;;;;;;6.57;3.20;;;11.70;53.30;;;;;;4993070;28;20222;-70
2023/06/20 08:37:25;;;;;;;5.20;3.13;;;11.60;54.40;;;;;;4985365;28;20178;-71
2023/06/20 08:39:52;;;;;;;12.40;3.90;;;11.60;53.60;;;;;;4984984;28;20636;-71
2023/06/20 08:42:19;;;;;;;6.87;3.90;;;11.50;54.50;;;;;;4986520;28;20502;-71
2023/06/20 08:44:47;;;;;;;8.53;4.17;;;11.40;54.30;;;;;;4969703;28;20181;-71
2023/06/20 08:47:15;;;;;;;8.83;3.87;;;11.40;54.70;;;;;;4986219;28;20185;-71
2023/06/20 08:49:42;;;;;;;12.43;4.10;;;11.30;55.70;;;;;;4987915;28;20197;-72
2023/06/20 08:52:12;;;;;;;9.13;4.40;;;11.30;55.30;;;;;;4988293;28;20193;-70
2023/06/20 08:54:42;;;;;;;11.83;3.90;;;11.30;56.20;;;;;;4976873;28;20714;-74
2023/06/20 08:57:09;;;;;;;9.90;3.87;;;11.20;56.00;;;;;;4983553;28;20293;-72
2023/06/20 08:59:37;;;;;;;7.23;3.57;;;11.20;55.90;;;;;;4964974;28;20344;-71
2023/06/20 09:02:04;;;;;;;10.83;4.07;;;11.20;56.40;;;;;;4985913;28;20185;-73
2023/06/20 09:04:32;;;;;;;9.57;4.53;;;11.10;56.50;;;;;;4988490;28;20201;-72
2023/06/20 09:07:01;;;;;;;12.27;4.10;;;11.10;56.50;;;;;;4986943;28;20280;-75
2023/06/20 09:09:28;;;;;;;6.27;3.40;;;11.10;57.00;;;;;;4988148;28;20189;-73
2023/06/20 09:11:59;;;;;;;8.87;4.13;;;11.10;57.80;;;;;;4985017;28;20218;-74
2023/06/20 09:14:27;;;;;;;10.00;4.30;;;11.10;57.60;;;;;;4989926;28;20679;-73
2023/06/20 09:16:57;;;;;;;7.77;4.50;;;11.00;58.30;;;;;;4991212;28;20531;-73
2023/06/20 09:19:25;;;;;;;12.37;4.80;;;11.10;58.80;;;;;;4989421;28;20228;-73
2023/06/20 09:22:03;;;;;;;12.60;4.37;;;11.00;59.20;;;;;;4988390;28;20246;-72
2023/06/20 09:24:30;;;;;;;9.70;4.77;;;11.00;59.20;;;;;;4981369;28;20194;-71
2023/06/20 09:27:03;;;;;;;9.57;4.83;;;11.00;59.20;;;;;;4986509;28;20223;-74
2023/06/20 09:29:30;;;;;;;10.50;5.37;;;10.90;59.30;;;;;;4990991;28;20193;-74
2023/06/20 09:31:58;;;;;;;7.67;5.00;;;10.90;60.00;;;;;;4992170;28;20582;-71
2023/06/20 09:34:25;;;;;;;11.27;5.00;;;10.80;60.30;;;;;;4991268;28;20248;-73
2023/06/20 09:36:52;;;;;;;12.43;6.03;;;10.80;60.60;;;;;;4988161;28;20269;-71
2023/06/20 09:39:22;;;;;;;13.10;5.27;;;10.80;60.50;;;;;;4985687;28;20817;-70
2023/06/20 09:41:54;;;;;;;12.60;4.67;;;10.80;60.30;;;;;;4993472;28;20197;-73
2023/06/20 09:44:21;;;;;;;11.27;4.77;;;10.70;61.70;;;;;;4990362;28;20229;-70
2023/06/20 09:46:49;;;;;;;8.80;4.70;;;10.60;61.40;;;;;;4992044;28;20185;-71
2023/06/20 09:49:16;;;;;;;7.07;4.00;;;10.60;62.10;;;;;;4989937;28;20545;-71
2023/06/20 09:51:55;;;;;;;7.63;4.13;;;10.50;62.20;;;;;;4990495;28;20205;-70
2023/06/20 09:54:46;;;;;;;8.77;5.00;;;10.40;61.30;;;;;;4989250;28;20697;-71
2023/06/20 09:57:21;;;;;;;8.13;4.67;;;10.30;61.80;;;;;;4991406;28;20169;-74
2023/06/20 09:59:54;;;;;;;10.67;5.13;;;10.20;62.40;;;;;;4990206;28;20215;-70
2023/06/20 10:02:24;;;;;;;7.30;4.40;;;10.20;62.60;;;;;;4986051;28;20192;-71
2023/06/20 10:04:54;;;;;;;8.47;5.40;;;10.20;62.50;;;;;;4991638;28;20188;-71
2023/06/20 10:07:23;;;;;;;10.30;4.90;;;10.10;62.40;;;;;;4985535;28;20191;-71
2023/06/20 10:09:54;;;;;;;10.83;4.73;;;10.10;62.20;;;;;;4991592;28;20221;-71
2023/06/20 10:12:22;;;;;;;9.20;4.80;;;10.10;62.40;;;;;;4991401;28;20550;-72
2023/06/20 10:14:49;;;;;;;12.83;4.80;;;10.10;61.40;;;;;;4991376;28;20254;-71
2023/06/20 10:17:31;;;;;;;7.53;4.40;;;10.10;61.70;;;;;;4987891;28;20549;-72
2023/06/20 10:20:04;;;;;;;10.90;5.03;;;10.10;61.90;;;;;;4985557;28;20239;-73
2023/06/20 10:22:36;;;;;;;8.70;4.70;;;10.10;61.00;;;;;;4991750;28;20300;-71
2023/06/20 10:25:15;;;;;;;8.50;4.50;;;10.10;61.00;;;;;;4990363;28;20205;-71
2023/06/20 10:27:56;;;;;;;8.10;4.47;;;10.10;59.60;;;;;;4991273;28;20196;-72
2023/06/20 10:30:53;;;;;;;9.43;4.43;;;10.10;58.80;;;;;;4986171;28;20200;-72
2023/06/20 10:33:46;;;;;;;7.00;4.30;;;10.10;59.90;;;;;;4989108;28;20217;-72
2023/06/20 10:36:16;;;;;;;11.97;4.93;;;10.20;59.20;;;;;;4986529;28;20578;-72
2023/06/20 10:38:49;;;;;;;9.27;4.83;;;10.10;58.70;;;;;;4991242;28;20193;-71
2023/06/20 10:41:25;;;;;;;6.57;3.70;;;10.10;60.00;;;;;;4986432;28;20220;-74
2023/06/20 10:43:53;;;;;;;9.03;4.40;;;10.10;59.30;;;;;;4994516;28;20239;-71
2023/06/20 10:46:22;;;;;;;8.87;4.53;;;10.00;59.30;;;;;;4986390;28;20197;-71
2023/06/20 10:48:50;;;;;;;8.87;4.30;;;10.00;59.90;;;;;;4989427;28;20504;-74
2023/06/20 10:51:18;;;;;;;8.50;3.90;;;10.00;59.60;;;;;;4990182;28;20308;-73
2023/06/20 10:53:45;;;;;;;6.03;3.93;;;9.90;58.90;;;;;;4986231;28;20224;-71
2023/06/20 10:56:26;;;;;;;5.37;3.30;;;9.90;59.00;;;;;;4987601;28;20205;-70
2023/06/20 10:58:53;;;;;;;3.83;2.67;;;9.80;58.90;;;;;;4991904;28;20683;-71
2023/06/20 11:01:26;;;;;;;3.80;2.43;;;9.90;59.00;;;;;;4986398;28;20185;-72
2023/06/20 11:03:54;;;;;;;5.57;2.67;;;9.90;56.90;;;;;;4989110;28;20253;-70
2023/06/20 11:06:21;;;;;;;5.73;2.37;;;10.00;57.40;;;;;;4984592;28;20189;-70
2023/06/20 11:08:49;;;;;;;3.60;2.33;;;10.10;56.10;;;;;;4989969;28;20192;-71
2023/06/20 11:11:16;;;;;;;2.63;1.83;;;10.20;56.00;;;;;;4985055;28;20202;-71
2023/06/20 11:13:44;;;;;;;5.23;2.10;;;10.20;55.70;;;;;;4984145;28;20351;-70
2023/06/20 11:16:20;;;;;;;2.40;2.00;;;10.20;55.60;;;;;;4996122;28;20184;-70
2023/06/20 11:18:47;;;;;;;2.77;1.60;;;10.20;55.50;;;;;;4987189;28;20684;-70
2023/06/20 11:21:16;;;;;;;2.40;1.73;;;10.30;55.50;;;;;;4990541;28;20232;-70
2023/06/20 11:23:43;;;;;;;2.10;1.90;;;10.20;55.70;;;;;;4987887;28;20555;-72
2023/06/20 11:26:11;;;;;;;2.57;1.63;;;10.20;56.00;;;;;;4988778;28;20218;-70
2023/06/20 11:28:38;;;;;;;6.17;2.10;;;10.20;55.70;;;;;;4986001;28;20674;-72
2023/06/20 11:31:11;;;;;;;2.73;1.83;;;10.20;55.60;;;;;;4990658;28;20216;-70
2023/06/20 11:33:39;;;;;;;2.00;1.60;;;10.20;55.60;;;;;;4982501;28;20660;-71
2023/06/20 11:36:06;;;;;;;2.20;1.73;;;10.20;55.60;;;;;;4988002;28;20184;-72
2023/06/20 11:38:39;;;;;;;1.80;1.47;;;10.20;55.70;;;;;;4983314;28;20526;-71
2023/06/20 11:41:08;;;;;;;2.03;1.60;;;10.20;55.70;;;;;;4980315;28;20241;-71
2023/06/20 11:43:43;;;;;;;2.17;1.57;;;10.20;56.20;;;;;;4985545;28;20194;-72
2023/06/20 11:46:12;;;;;;;1.77;1.60;;;10.10;56.00;;;;;;4989966;28;20271;-70
2023/06/20 11:48:52;;;;;;;1.40;1.30;;;10.10;56.20;;;;;;4989649;28;20197;-72
2023/06/20 11:51:24;;;;;;;1.73;1.60;;;10.00;56.30;;;;;;4987208;28;20271;-71
2023/06/20 11:54:08;;;;;;;1.57;1.40;;;10.00;56.20;;;;;;4986719;28;20410;-72
2023/06/20 11:56:35;;;;;;;1.87;1.67;;;10.00;56.40;;;;;;4986187;28;20295;-72
2023/06/20 11:59:03;;;;;;;2.37;1.70;;;10.00;56.40;;;;;;4986539;28;20273;-70
2023/06/20 12:01:32;;;;;;;1.60;1.23;;;10.00;56.40;;;;;;4983437;28;20189;-71
2023/06/20 12:04:05;;;;;;;2.90;2.13;;;9.90;56.50;;;;;;4990435;28;20201;-71
2023/06/20 12:06:37;;;;;;;2.57;1.57;;;9.90;56.70;;;;;;4983408;28;20189;-71
2023/06/20 12:09:09;;;;;;;1.70;1.53;;;9.80;57.20;;;;;;4984728;28;20201;-73
2023/06/20 12:11:49;;;;;;;1.40;1.30;;;9.80;57.30;;;;;;4986429;28;20220;-70
2023/06/20 12:14:17;;;;;;;1.73;1.40;;;9.70;57.50;;;;;;4985714;28;20281;-70
2023/06/20 12:16:45;;;;;;;1.67;1.57;;;9.70;57.60;;;;;;4988032;28;20197;-71
2023/06/20 12:19:13;;;;;;;1.70;1.60;;;9.60;58.00;;;;;;4985523;28;20282;-70
2023/06/20 12:21:42;;;;;;;1.77;1.50;;;9.50;58.50;;;;;;4987925;28;20235;-75
2023/06/20 12:24:11;;;;;;;1.30;1.20;;;9.40;58.50;;;;;;4986827;28;20196;-71
2023/06/20 12:26:39;;;;;;;1.30;1.20;;;9.40;58.80;;;;;;4979598;28;20779;-72
2023/06/20 12:29:08;;;;;;;1.53;1.40;;;9.40;58.80;;;;;;4986328;28;20271;-71
2023/06/20 12:31:36;;;;;;;3.03;1.50;;;9.30;59.40;;;;;;4989616;28;20471;-70
2023/06/20 12:34:03;;;;;;;3.07;1.50;;;9.30;59.30;;;;;;4989315;28;20220;-71
2023/06/20 12:36:32;;;;;;;2.60;1.60;;;9.20;60.10;;;;;;4982645;28;20192;-71
2023/06/20 12:39:00;;;;;;;1.60;1.50;;;9.20;59.80;;;;;;4989379;28;20192;-71
2023/06/20 12:41:35;;;;;;;2.43;1.60;;;9.20;60.10;;;;;;4987776;28;20679;-72
2023/06/20 12:44:05;;;;;;;2.27;1.70;;;9.20;60.00;;;;;;4987395;28;20205;-69
2023/06/20 12:46:32;;;;;;;3.40;1.60;;;9.10;60.40;;;;;;4989758;28;20189;-71
2023/06/20 12:49:00;;;;;;;2.23;1.80;;;9.00;61.00;;;;;;4984325;28;20672;-70
2023/06/20 12:51:27;;;;;;;2.33;1.50;;;9.00;61.30;;;;;;4979842;28;20185;-71
2023/06/20 12:53:54;;;;;;;2.17;1.97;;;9.00;61.10;;;;;;4966809;28;20224;-70
2023/06/20 12:56:22;;;;;;;3.67;2.10;;;8.90;61.30;;;;;;4982489;28;20709;-72
2023/06/20 12:58:50;;;;;;;3.70;2.33;;;8.90;61.40;;;;;;4987493;28;20282;-74
2023/06/20 13:01:20;;;;;;;3.10;2.03;;;8.80;61.90;;;;;;4987091;28;20220;-73